Time;durP1;ratioP1;P1;durP2;ratioP2;P2;SDS_P1;SDS_P2;PMS_P1;PMS_P2;Temp;Humidity;BMP_temperature;BMP_pressure;BME280_temperature;BME280_humidity;BME280_pressure;Samples;Min_cycle;Max_cycle;Signal;HPM_P1;HPM_P2
2021/04/06 00:00:06;;;;;;;0.93;0.50;;;24.00;38.60;;;;;;5084441;28;20016;-72
2021/04/06 00:02:33;;;;;;;1.00;0.60;;;24.00;38.60;;;;;;5081369;28;20569;-71
2021/04/06 00:05:02;;;;;;;1.02;0.57;;;24.00;38.70;;;;;;5064769;28;20124;-71
2021/04/06 00:07:28;;;;;;;0.70;0.50;;;24.00;38.70;;;;;;5083754;28;20061;-70
2021/04/06 00:10:00;;;;;;;1.23;0.60;;;24.00;38.70;;;;;;5065432;28;20040;-72
2021/04/06 00:12:27;;;;;;;0.80;0.70;;;23.90;38.60;;;;;;5087711;28;20028;-72
2021/04/06 00:14:56;;;;;;;1.00;0.80;;;23.90;38.60;;;;;;5079870;28;20008;-71
2021/04/06 00:17:23;;;;;;;0.63;0.52;;;23.90;38.60;;;;;;5063698;28;20059;-70
2021/04/06 00:19:51;;;;;;;0.93;0.60;;;23.90;38.60;;;;;;5080944;28;20039;-70
2021/04/06 00:22:18;;;;;;;1.30;0.60;;;23.90;38.60;;;;;;5079136;28;20032;-71
2021/04/06 00:24:48;;;;;;;1.58;0.68;;;23.90;38.60;;;;;;5086846;28;20043;-72
2021/04/06 00:27:22;;;;;;;2.47;0.70;;;23.90;38.60;;;;;;5069056;28;20331;-73
2021/04/06 00:29:57;;;;;;;1.35;0.77;;;23.90;38.60;;;;;;5054032;28;20039;-73
2021/04/06 00:32:26;;;;;;;1.77;0.60;;;23.80;38.60;;;;;;5074720;28;20041;-73
2021/04/06 00:34:56;;;;;;;2.65;0.80;;;23.80;38.70;;;;;;5077572;28;20174;-72
2021/04/06 00:37:23;;;;;;;1.15;0.47;;;23.80;38.60;;;;;;5085317;28;20028;-70
2021/04/06 00:40:02;;;;;;;1.77;0.80;;;23.80;38.60;;;;;;5086438;28;20427;-73
2021/04/06 00:42:29;;;;;;;0.77;0.57;;;23.80;38.60;;;;;;5081684;28;20032;-73
2021/04/06 00:45:08;;;;;;;1.17;0.60;;;23.80;38.60;;;;;;5080457;28;20067;-72
2021/04/06 00:47:34;;;;;;;0.82;0.50;;;23.70;38.50;;;;;;5082081;28;20335;-73
2021/04/06 00:50:18;;;;;;;1.55;0.60;;;23.70;38.90;;;;;;5082638;28;20080;-72
2021/04/06 00:52:45;;;;;;;1.25;0.60;;;23.70;38.60;;;;;;5074022;28;20134;-72
2021/04/06 00:55:18;;;;;;;1.73;0.63;;;23.70;38.60;;;;;;5081091;28;20028;-72
2021/04/06 00:57:45;;;;;;;1.02;0.60;;;23.70;38.60;;;;;;5064943;28;20051;-73
2021/04/06 01:00:25;;;;;;;1.60;0.63;;;23.70;38.60;;;;;;5060353;28;20040;-71
2021/04/06 01:03:03;;;;;;;0.63;0.50;;;23.70;38.60;;;;;;5085718;28;20043;-73
2021/04/06 01:05:34;;;;;;;0.50;0.50;;;23.70;38.60;;;;;;5074675;28;20078;-72
2021/04/06 01:08:03;;;;;;;1.08;0.60;;;23.70;38.60;;;;;;5077038;28;20044;-72
2021/04/06 01:10:32;;;;;;;1.08;0.50;;;23.70;38.60;;;;;;5085453;28;20036;-72
2021/04/06 01:12:58;;;;;;;0.50;0.45;;;23.60;38.50;;;;;;5085261;28;20024;-71
2021/04/06 01:15:28;;;;;;;1.05;0.73;;;23.60;38.50;;;;;;5085142;28;20032;-71
2021/04/06 01:17:54;;;;;;;0.60;0.50;;;23.60;38.60;;;;;;5079835;28;20108;-70
2021/04/06 01:20:21;;;;;;;1.70;0.70;;;23.60;38.60;;;;;;5067129;28;20048;-71
2021/04/06 01:22:49;;;;;;;0.93;0.52;;;23.60;38.60;;;;;;5085702;28;20044;-71
2021/04/06 01:25:20;;;;;;;0.90;0.60;;;23.60;38.60;;;;;;5082774;28;20101;-72
2021/04/06 01:27:46;;;;;;;1.20;0.60;;;23.60;38.60;;;;;;5084075;28;20024;-71
2021/04/06 01:30:15;;;;;;;0.90;0.60;;;23.60;38.60;;;;;;5064243;28;20028;-71
2021/04/06 01:32:42;;;;;;;0.98;0.60;;;23.60;38.60;;;;;;5061611;28;20063;-73
2021/04/06 01:35:09;;;;;;;1.45;0.60;;;23.60;38.60;;;;;;5085811;28;20402;-73
2021/04/06 01:37:36;;;;;;;0.70;0.50;;;23.60;38.60;;;;;;5083447;28;20031;-71
2021/04/06 01:40:05;;;;;;;0.80;0.45;;;23.60;38.60;;;;;;5085880;28;20024;-72
2021/04/06 01:42:33;;;;;;;0.93;0.60;;;23.50;38.50;;;;;;5080776;28;20042;-72
2021/04/06 01:45:03;;;;;;;0.98;0.60;;;23.50;38.50;;;;;;5077148;28;20514;-72
2021/04/06 01:47:28;;;;;;;;;;;23.50;38.60;;;;;;5081358;28;20554;-70
2021/04/06 01:49:56;;;;;;;0.93;0.50;;;23.50;38.50;;;;;;5064274;28;19998;-72
2021/04/06 01:52:22;;;;;;;0.77;0.50;;;23.50;38.50;;;;;;5067863;28;20430;-72
2021/04/06 01:55:01;;;;;;;0.90;0.50;;;23.50;38.50;;;;;;5066866;28;20040;-72
2021/04/06 01:57:40;;;;;;;0.85;0.50;;;23.50;38.50;;;;;;5061700;28;20074;-72
2021/04/06 02:00:27;;;;;;;1.20;0.63;;;23.50;38.60;;;;;;5080726;28;20094;-72
2021/04/06 02:02:55;;;;;;;0.80;0.60;;;23.50;38.60;;;;;;5079001;28;20521;-72
2021/04/06 02:05:24;;;;;;;0.75;0.40;;;23.40;38.50;;;;;;5072535;28;20086;-73
2021/04/06 02:07:53;;;;;;;0.47;0.47;;;23.50;38.60;;;;;;5085132;28;20032;-72
2021/04/06 02:10:18;;;;;;;1.13;0.60;;;23.40;38.60;;;;;;5081589;28;20096;-72
2021/04/06 02:12:44;;;;;;;0.68;0.50;;;23.40;38.50;;;;;;5073848;28;20112;-72
2021/04/06 02:15:12;;;;;;;1.33;0.60;;;23.40;38.50;;;;;;5081198;28;20071;-71
2021/04/06 02:17:51;;;;;;;2.08;0.57;;;23.40;38.50;;;;;;5072170;28;20024;-72
2021/04/06 02:20:26;;;;;;;0.70;0.52;;;23.40;38.50;;;;;;5079425;28;20386;-71
2021/04/06 02:23:03;;;;;;;0.68;0.50;;;23.40;38.50;;;;;;5085437;28;20390;-71
2021/04/06 02:25:30;;;;;;;1.00;0.70;;;23.40;38.50;;;;;;5076509;28;20110;-73
2021/04/06 02:27:56;;;;;;;0.75;0.60;;;23.40;38.50;;;;;;5069849;28;20091;-72
2021/04/06 02:30:32;;;;;;;0.50;0.50;;;23.40;38.50;;;;;;5085074;28;20185;-72
2021/04/06 02:33:02;;;;;;;1.30;0.63;;;23.40;38.50;;;;;;5063097;28;20651;-73
2021/04/06 02:35:28;;;;;;;0.95;0.60;;;23.40;38.50;;;;;;5074028;28;20032;-71
2021/04/06 02:37:54;;;;;;;0.82;0.50;;;23.40;39.00;;;;;;5064520;28;20056;-71
2021/04/06 02:40:22;;;;;;;0.98;0.50;;;23.40;38.50;;;;;;5070151;28;20249;-72
2021/04/06 02:42:49;;;;;;;0.90;0.60;;;23.30;38.50;;;;;;5066005;28;20089;-72
2021/04/06 02:45:21;;;;;;;0.60;0.60;;;23.30;38.40;;;;;;5054196;28;20070;-72
2021/04/06 02:47:50;;;;;;;0.93;0.43;;;23.30;38.50;;;;;;5076052;28;20035;-72
2021/04/06 02:50:24;;;;;;;0.85;0.68;;;23.40;38.50;;;;;;5082484;28;20105;-72
2021/04/06 02:52:50;;;;;;;0.88;0.57;;;23.30;38.90;;;;;;5066114;28;20028;-72
2021/04/06 02:55:16;;;;;;;0.93;0.60;;;23.30;38.40;;;;;;5070275;28;20039;-72
2021/04/06 02:57:45;;;;;;;0.65;0.50;;;23.30;38.40;;;;;;5066316;28;20410;-72
2021/04/06 03:00:29;;;;;;;0.70;0.50;;;23.30;38.40;;;;;;5080660;28;20028;-73
2021/04/06 03:03:03;;;;;;;0.73;0.52;;;23.30;38.40;;;;;;5082992;28;20110;-72
2021/04/06 03:05:34;;;;;;;0.68;0.50;;;23.30;38.40;;;;;;5072675;28;20117;-72
2021/04/06 03:08:03;;;;;;;0.77;0.50;;;23.30;38.40;;;;;;5064394;28;22466;-73
2021/04/06 03:10:31;;;;;;;0.90;0.50;;;23.30;38.40;;;;;;5067927;28;20084;-72
2021/04/06 03:12:57;;;;;;;0.77;0.60;;;23.30;38.40;;;;;;5061914;28;20425;-72
2021/04/06 03:15:27;;;;;;;0.43;0.43;;;23.30;38.40;;;;;;5073449;28;20024;-74
2021/04/06 03:17:55;;;;;;;0.68;0.50;;;23.30;38.40;;;;;;5076177;28;20820;-73
2021/04/06 03:20:22;;;;;;;1.05;0.70;;;23.30;38.40;;;;;;5081367;28;20071;-72
2021/04/06 03:22:49;;;;;;;0.90;0.50;;;23.30;38.40;;;;;;5050570;28;20059;-72
2021/04/06 03:25:15;;;;;;;1.25;0.52;;;23.30;38.40;;;;;;5069234;28;20025;-73
2021/04/06 03:27:45;;;;;;;0.50;0.50;;;23.30;38.40;;;;;;5070321;28;20032;-73
2021/04/06 03:30:12;;;;;;;0.52;0.45;;;23.30;38.40;;;;;;5080476;28;20093;-71
2021/04/06 03:32:40;;;;;;;0.50;0.50;;;23.20;38.30;;;;;;5080326;28;20020;-72
2021/04/06 03:35:07;;;;;;;0.77;0.52;;;23.30;38.40;;;;;;5062863;28;20126;-72
2021/04/06 03:37:34;;;;;;;0.68;0.50;;;23.20;38.40;;;;;;5081299;28;20030;-72
2021/04/06 03:40:01;;;;;;;1.50;0.50;;;23.30;38.40;;;;;;5070655;28;20041;-74
2021/04/06 03:42:27;;;;;;;1.02;0.50;;;23.20;38.30;;;;;;5076638;28;20102;-73
2021/04/06 03:45:07;;;;;;;0.43;0.43;;;23.20;38.70;;;;;;5083023;28;20067;-71
2021/04/06 03:47:58;;;;;;;0.70;0.55;;;23.20;38.30;;;;;;5052188;28;20031;-74
2021/04/06 03:50:40;;;;;;;0.40;0.40;;;23.20;38.30;;;;;;5083428;28;20094;-73
2021/04/06 03:53:11;;;;;;;1.00;0.50;;;23.20;38.20;;;;;;5086156;28;20119;-73
2021/04/06 03:55:38;;;;;;;0.73;0.63;;;23.20;38.30;;;;;;5074455;28;20537;-73
2021/04/06 03:58:07;;;;;;;0.60;0.40;;;23.20;38.30;;;;;;5070402;28;20028;-73
2021/04/06 04:00:33;;;;;;;;;;;23.20;38.40;;;;;;5081715;28;20045;-74
2021/04/06 04:03:00;;;;;;;0.73;0.50;;;23.20;38.30;;;;;;5085404;28;20377;-74
2021/04/06 04:05:27;;;;;;;0.40;0.40;;;23.20;38.30;;;;;;5079604;28;20869;-72
2021/04/06 04:07:52;;;;;;;0.70;0.50;;;23.20;38.30;;;;;;5055753;28;20025;-73
2021/04/06 04:10:18;;;;;;;0.73;0.60;;;23.20;38.30;;;;;;5078704;28;20405;-73
2021/04/06 04:12:44;;;;;;;0.65;0.47;;;23.20;38.30;;;;;;5087272;28;20382;-73
2021/04/06 04:15:10;;;;;;;0.40;0.40;;;23.20;38.30;;;;;;5086739;28;20034;-73
2021/04/06 04:17:36;;;;;;;0.52;0.40;;;23.20;38.30;;;;;;5060563;28;20116;-74
2021/04/06 04:20:08;;;;;;;0.70;0.60;;;23.20;38.30;;;;;;5080475;28;20458;-73
2021/04/06 04:22:34;;;;;;;0.73;0.50;;;23.20;38.30;;;;;;5084043;28;20525;-74
2021/04/06 04:25:00;;;;;;;0.50;0.50;;;23.20;38.30;;;;;;5063362;28;20044;-73
2021/04/06 04:27:25;;;;;;;0.43;0.40;;;23.20;38.30;;;;;;5082424;28;20040;-73
2021/04/06 04:29:51;;;;;;;0.55;0.47;;;23.20;38.80;;;;;;5086303;28;20024;-73
2021/04/06 04:32:16;;;;;;;0.68;0.50;;;23.20;38.30;;;;;;5092820;28;20032;-73
2021/04/06 04:34:42;;;;;;;0.75;0.50;;;23.20;38.30;;;;;;5083581;28;20030;-73
2021/04/06 04:37:08;;;;;;;0.70;0.55;;;23.20;38.30;;;;;;5075713;28;20121;-73
2021/04/06 04:39:33;;;;;;;0.90;0.60;;;23.20;38.30;;;;;;5087155;28;20047;-72
2021/04/06 04:41:59;;;;;;;0.50;0.50;;;23.10;38.20;;;;;;5088265;28;20099;-72
2021/04/06 04:44:25;;;;;;;1.98;0.60;;;23.10;38.20;;;;;;5086094;28;20024;-71
2021/04/06 04:46:50;;;;;;;0.60;0.50;;;23.10;38.20;;;;;;5080840;28;20054;-73
2021/04/06 04:49:16;;;;;;;0.88;0.60;;;23.10;38.20;;;;;;5067538;28;20553;-72
2021/04/06 04:51:41;;;;;;;0.70;0.50;;;23.10;38.20;;;;;;5078310;28;20036;-72
2021/04/06 04:54:07;;;;;;;1.15;0.50;;;23.10;38.20;;;;;;5077244;28;20036;-73
2021/04/06 04:56:33;;;;;;;0.50;0.50;;;23.10;38.20;;;;;;5072342;28;20117;-73
2021/04/06 04:58:58;;;;;;;0.50;0.50;;;23.10;38.20;;;;;;5077020;28;20089;-72
2021/04/06 05:01:24;;;;;;;0.65;0.40;;;23.10;38.20;;;;;;5077842;28;20043;-73
2021/04/06 05:03:50;;;;;;;0.68;0.47;;;23.10;38.20;;;;;;5086745;28;20469;-73
2021/04/06 05:06:16;;;;;;;0.45;0.40;;;23.10;38.20;;;;;;5081932;28;20028;-71
2021/04/06 05:08:41;;;;;;;1.10;0.43;;;23.10;38.20;;;;;;5067492;28;20043;-71
2021/04/06 05:11:08;;;;;;;0.40;0.40;;;23.10;38.20;;;;;;5077142;28;21263;-72
2021/04/06 05:13:34;;;;;;;0.75;0.50;;;23.10;38.20;;;;;;5062671;28;20169;-73
2021/04/06 05:16:00;;;;;;;0.40;0.40;;;23.10;38.20;;;;;;5085309;28;20118;-72
2021/04/06 05:18:25;;;;;;;0.70;0.50;;;23.10;38.20;;;;;;5077965;28;20031;-73
2021/04/06 05:20:51;;;;;;;0.85;0.40;;;23.10;38.20;;;;;;5087234;28;20032;-72
2021/04/06 05:23:16;;;;;;;0.40;0.40;;;23.10;38.20;;;;;;5067723;28;20040;-72
2021/04/06 05:25:44;;;;;;;0.65;0.50;;;23.10;38.20;;;;;;5067797;28;20186;-73
2021/04/06 05:28:10;;;;;;;0.52;0.40;;;23.10;38.70;;;;;;5080027;28;20024;-73
2021/04/06 05:30:35;;;;;;;0.82;0.50;;;23.10;38.20;;;;;;5086550;28;20050;-73
2021/04/06 05:33:01;;;;;;;0.85;0.57;;;23.10;38.20;;;;;;5087503;28;20099;-72
2021/04/06 05:35:27;;;;;;;0.77;0.50;;;23.10;38.10;;;;;;5085859;28;20081;-73
2021/04/06 05:37:52;;;;;;;1.10;0.50;;;23.10;38.10;;;;;;5065160;28;20055;-73
2021/04/06 05:40:18;;;;;;;0.50;0.50;;;23.10;38.10;;;;;;5085091;28;20043;-72
2021/04/06 05:42:44;;;;;;;0.73;0.47;;;23.10;38.10;;;;;;5064345;28;20438;-72
2021/04/06 05:45:10;;;;;;;0.45;0.43;;;23.10;38.10;;;;;;5077822;28;20040;-72
2021/04/06 05:47:40;;;;;;;0.45;0.40;;;23.10;38.10;;;;;;5068505;28;20021;-72
2021/04/06 05:50:08;;;;;;;0.40;0.40;;;23.00;38.00;;;;;;5083662;28;20122;-73
2021/04/06 05:52:34;;;;;;;0.93;0.50;;;23.00;38.10;;;;;;5065606;28;20115;-72
2021/04/06 05:55:01;;;;;;;0.40;0.40;;;23.00;38.10;;;;;;5084334;28;20115;-73
2021/04/06 05:57:28;;;;;;;0.40;0.40;;;23.10;38.10;;;;;;5062633;28;20028;-72
2021/04/06 05:59:53;;;;;;;0.40;0.40;;;23.00;38.00;;;;;;5066348;28;20029;-71
2021/04/06 06:02:20;;;;;;;0.93;0.40;;;23.00;38.00;;;;;;5082866;28;20490;-72
2021/04/06 06:04:45;;;;;;;0.80;0.50;;;23.00;38.00;;;;;;5068023;28;20062;-72
2021/04/06 06:07:12;;;;;;;0.57;0.40;;;23.00;38.00;;;;;;5064184;28;20525;-72
2021/04/06 06:09:38;;;;;;;0.77;0.60;;;23.00;38.00;;;;;;5081164;28;20035;-72
2021/04/06 06:12:05;;;;;;;0.40;0.40;;;23.00;38.00;;;;;;5080062;28;20131;-72
2021/04/06 06:14:32;;;;;;;0.63;0.40;;;23.00;38.00;;;;;;5084503;28;20059;-71
2021/04/06 06:17:11;;;;;;;0.40;0.40;;;23.00;38.10;;;;;;5080962;28;20028;-71
2021/04/06 06:19:36;;;;;;;0.63;0.50;;;23.00;38.00;;;;;;5068809;28;20039;-71
2021/04/06 06:22:11;;;;;;;0.95;0.50;;;23.00;38.00;;;;;;5054039;28;20024;-72
2021/04/06 06:24:43;;;;;;;0.70;0.40;;;23.00;38.00;;;;;;5074906;28;20115;-71
2021/04/06 06:27:33;;;;;;;0.73;0.40;;;23.00;38.00;;;;;;5069675;28;20440;-71
2021/04/06 06:30:22;;;;;;;0.70;0.50;;;23.00;38.00;;;;;;5072954;28;20098;-71
2021/04/06 06:32:48;;;;;;;0.73;0.50;;;23.00;38.30;;;;;;5078248;28;20051;-72
2021/04/06 06:35:33;;;;;;;0.40;0.40;;;23.00;38.10;;;;;;5083026;28;20024;-71
2021/04/06 06:38:21;;;;;;;0.52;0.50;;;23.00;38.00;;;;;;5065134;28;20033;-72
2021/04/06 06:40:50;;;;;;;0.40;0.40;;;23.00;38.00;;;;;;5077032;28;20039;-70
2021/04/06 06:43:18;;;;;;;0.63;0.50;;;23.00;38.00;;;;;;5068957;28;20028;-71
2021/04/06 06:45:44;;;;;;;0.93;0.60;;;23.00;38.00;;;;;;5084231;28;20057;-73
2021/04/06 06:48:23;;;;;;;0.40;0.40;;;23.00;38.00;;;;;;5049274;28;20094;-72
2021/04/06 06:50:50;;;;;;;0.77;0.50;;;23.00;38.00;;;;;;5078787;28;20039;-72
2021/04/06 06:53:30;;;;;;;0.30;0.30;;;22.90;38.00;;;;;;5085085;28;20032;-71
2021/04/06 06:55:55;;;;;;;0.82;0.60;;;23.00;38.10;;;;;;5061300;28;20039;-70
2021/04/06 06:58:30;;;;;;;0.73;0.50;;;22.90;38.00;;;;;;5075821;28;20032;-71
2021/04/06 07:00:55;;;;;;;1.10;0.50;;;22.90;38.00;;;;;;5074770;28;20128;-72
2021/04/06 07:03:21;;;;;;;0.52;0.50;;;22.90;38.10;;;;;;5065450;28;20564;-72
2021/04/06 07:05:46;;;;;;;0.60;0.45;;;22.90;38.00;;;;;;5079656;28;20024;-73
2021/04/06 07:08:12;;;;;;;0.90;0.50;;;22.90;38.00;;;;;;5078723;28;20023;-71
2021/04/06 07:10:41;;;;;;;1.60;0.60;;;22.90;38.00;;;;;;5066506;28;20059;-72
2021/04/06 07:13:06;;;;;;;0.43;0.40;;;22.90;38.00;;;;;;5084202;28;20449;-71
2021/04/06 07:15:35;;;;;;;0.50;0.40;;;22.90;38.00;;;;;;5057710;28;20022;-72
2021/04/06 07:18:21;;;;;;;0.40;0.40;;;22.90;38.00;;;;;;5077853;28;20032;-72
2021/04/06 07:21:09;;;;;;;0.40;0.40;;;22.90;38.10;;;;;;5063429;28;20036;-73
2021/04/06 07:23:49;;;;;;;0.65;0.50;;;22.90;38.10;;;;;;5066774;28;20693;-74
2021/04/06 07:26:17;;;;;;;1.13;0.50;;;22.90;38.10;;;;;;5068503;28;20031;-71
2021/04/06 07:28:44;;;;;;;0.63;0.45;;;22.90;38.10;;;;;;5077779;28;20028;-72
2021/04/06 07:31:11;;;;;;;0.43;0.40;;;22.90;38.10;;;;;;5058697;28;20539;-70
2021/04/06 07:33:39;;;;;;;0.50;0.40;;;22.90;38.10;;;;;;5076180;28;20028;-70
2021/04/06 07:36:07;;;;;;;0.77;0.45;;;22.90;38.10;;;;;;5073808;28;20343;-70
2021/04/06 07:38:59;;;;;;;0.55;0.40;;;23.00;38.20;;;;;;5080187;28;20038;-71
2021/04/06 07:41:32;;;;;;;1.35;0.40;;;22.90;38.10;;;;;;5064645;28;20140;-72
2021/04/06 07:44:01;;;;;;;1.55;0.52;;;22.90;38.10;;;;;;5064874;28;20064;-70
2021/04/06 07:46:32;;;;;;;2.45;0.60;;;22.90;38.20;;;;;;5052909;28;20032;-70
2021/04/06 07:48:59;;;;;;;0.73;0.50;;;22.90;38.10;;;;;;5076862;28;20036;-71
2021/04/06 07:51:27;;;;;;;0.60;0.40;;;22.90;38.20;;;;;;5080023;28;20078;-71
2021/04/06 07:54:06;;;;;;;0.60;0.50;;;23.00;38.20;;;;;;5069342;28;20450;-70
2021/04/06 07:56:56;;;;;;;1.58;0.50;;;23.00;38.20;;;;;;5063697;28;20024;-72
2021/04/06 07:59:24;;;;;;;;;;;23.00;38.20;;;;;;5071969;28;20471;-72
2021/04/06 08:01:50;;;;;;;1.03;0.50;;;23.00;38.20;;;;;;5062324;28;19920;-72
2021/04/06 08:04:20;;;;;;;0.93;0.70;;;23.00;38.20;;;;;;5062798;28;20072;-70
2021/04/06 08:06:55;;;;;;;1.33;0.60;;;23.00;38.30;;;;;;5077939;28;20032;-71
2021/04/06 08:12:12;;;;;;;1.85;0.50;;;23.00;38.30;;;;;;5066440;28;20448;-72
2021/04/06 08:14:43;;;;;;;0.80;0.40;;;23.00;38.30;;;;;;5075258;28;20039;-73
2021/04/06 08:17:26;;;;;;;0.82;0.50;;;23.00;38.30;;;;;;5072466;28;20047;-73
2021/04/06 08:19:58;;;;;;;1.60;0.50;;;23.00;38.30;;;;;;5059418;28;20037;-72
2021/04/06 08:22:27;;;;;;;0.85;0.40;;;23.00;38.30;;;;;;5062424;28;20031;-69
2021/04/06 08:25:20;;;;;;;1.25;0.55;;;23.00;38.30;;;;;;5081971;28;20051;-70
2021/04/06 08:28:23;;;;;;;0.40;0.40;;;23.00;38.30;;;;;;5045602;28;20379;-70
2021/04/06 08:30:49;;;;;;;0.65;0.47;;;23.00;38.30;;;;;;5079984;28;20044;-72
2021/04/06 08:33:15;;;;;;;1.38;0.40;;;23.00;38.30;;;;;;5080278;28;20082;-71
2021/04/06 08:35:44;;;;;;;0.55;0.40;;;23.00;38.40;;;;;;5079073;28;20043;-72
2021/04/06 08:38:33;;;;;;;1.50;0.70;;;23.00;38.30;;;;;;5055338;28;20028;-70
2021/04/06 08:41:05;;;;;;;1.08;0.50;;;23.00;38.30;;;;;;5084294;28;20071;-72
2021/04/06 08:43:38;;;;;;;1.20;0.60;;;23.00;38.30;;;;;;5063134;28;20063;-71
2021/04/06 08:46:13;;;;;;;1.02;0.45;;;23.00;38.40;;;;;;5081840;28;20114;-72
2021/04/06 08:48:48;;;;;;;0.57;0.50;;;23.00;38.90;;;;;;5047589;28;20030;-71
2021/04/06 08:51:57;;;;;;;1.08;0.40;;;23.00;38.40;;;;;;5083608;28;20146;-70
2021/04/06 08:54:33;;;;;;;2.10;0.50;;;23.00;38.40;;;;;;5083388;28;20206;-71
2021/04/06 08:57:01;;;;;;;0.63;0.50;;;23.00;38.40;;;;;;5069517;28;20040;-70
2021/04/06 08:59:33;;;;;;;0.70;0.45;;;23.10;38.50;;;;;;5082868;28;20078;-71
2021/04/06 09:02:17;;;;;;;1.17;0.50;;;23.10;38.50;;;;;;5066447;28;20040;-71
2021/04/06 09:04:45;;;;;;;1.05;0.60;;;23.10;38.60;;;;;;5067109;28;20059;-71
2021/04/06 09:07:28;;;;;;;1.40;0.60;;;23.10;39.10;;;;;;5077501;28;20431;-75
2021/04/06 09:09:56;;;;;;;0.98;0.40;;;23.10;38.60;;;;;;5085279;28;20111;-71
2021/04/06 09:12:32;;;;;;;2.47;0.60;;;23.10;38.60;;;;;;5053854;28;20500;-71
2021/04/06 09:14:58;;;;;;;2.10;0.70;;;23.10;38.60;;;;;;5072104;28;20028;-71
2021/04/06 09:17:31;;;;;;;1.90;0.50;;;23.10;38.70;;;;;;5056577;28;20040;-68
2021/04/06 09:19:57;;;;;;;1.80;0.60;;;23.10;38.70;;;;;;5062487;28;20037;-71
2021/04/06 09:22:23;;;;;;;2.28;0.55;;;23.10;38.80;;;;;;5055333;28;20078;-70
2021/04/06 09:24:49;;;;;;;1.30;0.60;;;23.10;38.80;;;;;;5081075;28;20052;-71
2021/04/06 09:27:15;;;;;;;2.22;0.60;;;23.10;38.80;;;;;;5072312;28;20607;-67
2021/04/06 09:29:45;;;;;;;2.47;0.57;;;23.10;38.80;;;;;;5065782;28;20558;-69
2021/04/06 09:32:13;;;;;;;2.13;0.77;;;23.10;38.80;;;;;;5078912;28;20044;-68
2021/04/06 09:34:41;;;;;;;1.73;0.70;;;23.10;38.80;;;;;;5083263;28;20035;-68
2021/04/06 09:37:21;;;;;;;2.83;0.80;;;23.10;38.80;;;;;;5068202;28;20426;-67
2021/04/06 09:39:50;;;;;;;2.58;0.70;;;23.10;38.80;;;;;;5071308;28;20102;-66
2021/04/06 09:42:17;;;;;;;3.55;0.90;;;23.10;38.70;;;;;;5078511;28;20769;-68
2021/04/06 09:44:45;;;;;;;1.98;0.80;;;23.10;38.80;;;;;;5062509;28;20040;-67
2021/04/06 09:47:12;;;;;;;4.53;0.85;;;23.10;38.70;;;;;;5066326;28;20132;-67
2021/04/06 09:49:41;;;;;;;2.80;0.63;;;23.10;38.60;;;;;;5071486;28;20484;-67
2021/04/06 09:52:13;;;;;;;3.03;0.70;;;23.20;38.70;;;;;;5063882;28;20071;-67
2021/04/06 09:54:43;;;;;;;2.15;0.73;;;23.10;38.50;;;;;;5057020;28;20024;-67
2021/04/06 09:57:11;;;;;;;3.15;0.88;;;23.10;38.50;;;;;;5076368;28;20621;-68
2021/04/06 09:59:44;;;;;;;2.28;0.80;;;23.10;38.50;;;;;;5082595;28;20036;-66
2021/04/06 10:02:22;;;;;;;1.67;0.70;;;23.10;38.40;;;;;;5081922;28;20047;-67
2021/04/06 10:04:49;;;;;;;3.60;0.70;;;23.10;38.40;;;;;;5077104;28;20424;-68
2021/04/06 10:07:22;;;;;;;3.30;0.80;;;23.20;38.40;;;;;;5073694;28;20027;-69
2021/04/06 10:09:58;;;;;;;5.07;0.80;;;23.10;38.50;;;;;;5073059;28;20027;-69
2021/04/06 10:12:26;;;;;;;2.90;0.75;;;23.20;38.50;;;;;;5081830;28;20090;-69
2021/04/06 10:14:52;;;;;;;1.77;0.65;;;23.20;38.50;;;;;;5082351;28;20019;-69
2021/04/06 10:17:22;;;;;;;3.50;0.60;;;23.20;38.50;;;;;;5071931;28;20427;-69
2021/04/06 10:19:57;;;;;;;2.67;0.60;;;23.10;38.50;;;;;;5082711;28;20077;-68
2021/04/06 10:22:25;;;;;;;1.83;0.80;;;23.20;38.50;;;;;;5080384;28;20097;-69
2021/04/06 10:24:59;;;;;;;5.47;0.90;;;23.10;38.40;;;;;;5079047;28;20024;-70
2021/04/06 10:27:37;;;;;;;1.27;0.70;;;23.20;38.40;;;;;;5084522;28;20028;-69
2021/04/06 10:30:15;;;;;;;3.28;0.80;;;23.20;38.40;;;;;;5078761;28;20024;-69
2021/04/06 10:32:50;;;;;;;2.53;0.80;;;23.20;38.40;;;;;;5063891;28;20431;-70
2021/04/06 10:35:28;;;;;;;2.25;0.73;;;23.10;38.40;;;;;;5066048;28;20070;-70
2021/04/06 10:37:56;;;;;;;2.38;0.77;;;23.20;38.40;;;;;;5077204;28;20074;-70
2021/04/06 10:40:38;;;;;;;3.40;0.68;;;23.20;38.40;;;;;;5072491;28;20047;-69
2021/04/06 10:43:09;;;;;;;2.45;0.90;;;23.20;38.40;;;;;;5079904;28;20131;-68
2021/04/06 10:45:39;;;;;;;1.70;0.70;;;23.20;38.40;;;;;;5082307;28;20552;-71
2021/04/06 10:48:07;;;;;;;1.52;0.88;;;23.20;38.90;;;;;;5076763;28;20553;-70
2021/04/06 10:50:34;;;;;;;2.57;0.87;;;23.20;38.40;;;;;;5079371;28;20101;-69
2021/04/06 10:53:01;;;;;;;3.88;0.80;;;23.20;38.40;;;;;;5080804;28;20271;-69
2021/04/06 10:55:37;;;;;;;2.38;0.98;;;23.20;38.40;;;;;;5067191;28;20024;-69
2021/04/06 10:58:04;;;;;;;3.60;0.80;;;23.20;38.40;;;;;;5076479;28;20521;-69
2021/04/06 11:00:30;;;;;;;2.45;0.95;;;23.20;38.40;;;;;;5066394;28;20032;-69
2021/04/06 11:03:17;;;;;;;1.35;0.75;;;23.20;38.40;;;;;;5079903;28;20024;-69
2021/04/06 11:05:44;;;;;;;2.55;0.90;;;23.20;38.40;;;;;;5080315;28;20542;-69
2021/04/06 11:08:24;;;;;;;1.48;0.75;;;23.20;38.40;;;;;;5076105;28;20543;-69
2021/04/06 11:10:54;;;;;;;1.70;0.73;;;23.20;38.40;;;;;;5080140;28;20032;-70
2021/04/06 11:13:20;;;;;;;2.05;0.80;;;23.20;38.40;;;;;;5077548;28;20043;-69
2021/04/06 11:15:47;;;;;;;3.33;0.88;;;23.20;38.50;;;;;;5081704;28;20024;-66
2021/04/06 11:18:13;;;;;;;2.03;0.85;;;23.20;38.70;;;;;;5059938;28;20028;-67
2021/04/06 11:20:40;;;;;;;1.70;0.82;;;23.20;38.60;;;;;;5066370;28;20035;-71
2021/04/06 11:23:06;;;;;;;1.17;0.70;;;23.20;38.60;;;;;;5078891;28;20031;-67
2021/04/06 11:25:32;;;;;;;2.90;0.85;;;23.30;38.50;;;;;;5077981;28;20032;-69
2021/04/06 11:27:58;;;;;;;3.13;1.00;;;23.30;38.60;;;;;;5071989;28;20040;-67
2021/04/06 11:30:27;;;;;;;2.15;0.88;;;23.30;38.50;;;;;;5079845;28;20117;-66
2021/04/06 11:32:53;;;;;;;12.17;1.10;;;23.20;38.50;;;;;;5077214;28;20050;-67
2021/04/06 11:35:18;;;;;;;2.60;1.10;;;23.30;38.60;;;;;;5066624;28;20032;-65
2021/04/06 11:37:44;;;;;;;1.05;0.60;;;23.30;38.50;;;;;;5064875;28;20597;-65
2021/04/06 11:40:10;;;;;;;2.88;0.80;;;23.30;38.50;;;;;;5076539;28;20031;-66
2021/04/06 11:42:36;;;;;;;2.42;0.98;;;23.30;38.60;;;;;;5083580;28;20028;-65
2021/04/06 11:45:01;;;;;;;1.90;0.82;;;23.30;38.50;;;;;;5079346;28;20475;-66
2021/04/06 11:47:27;;;;;;;1.75;0.80;;;23.30;38.50;;;;;;5077701;28;20076;-65
2021/04/06 11:49:53;;;;;;;2.55;0.70;;;23.30;38.60;;;;;;5078801;28;20024;-66
2021/04/06 11:52:18;;;;;;;2.28;0.85;;;23.30;38.50;;;;;;5077090;28;20035;-64
2021/04/06 11:54:44;;;;;;;1.95;0.70;;;23.30;38.40;;;;;;5072622;28;20044;-66
2021/04/06 11:57:10;;;;;;;1.30;0.70;;;23.30;38.50;;;;;;5081023;28;20032;-65
2021/04/06 11:59:35;;;;;;;2.80;0.80;;;23.30;38.50;;;;;;5076974;28;20073;-69
2021/04/06 12:02:01;;;;;;;1.85;0.70;;;23.30;38.40;;;;;;5075977;28;20043;-66
2021/04/06 12:04:29;;;;;;;2.20;0.65;;;23.30;38.50;;;;;;5059603;28;20509;-66
2021/04/06 12:06:55;;;;;;;2.72;0.90;;;23.30;38.50;;;;;;5059600;28;20047;-66
2021/04/06 12:09:20;;;;;;;2.15;1.02;;;23.30;38.40;;;;;;5075606;28;20032;-65
2021/04/06 12:11:46;;;;;;;1.48;0.80;;;23.30;38.40;;;;;;5076220;28;20031;-66
2021/04/06 12:14:12;;;;;;;0.75;0.50;;;23.40;38.40;;;;;;5080964;28;20020;-65
2021/04/06 12:16:37;;;;;;;1.70;0.75;;;23.30;38.40;;;;;;5087760;28;20020;-67
2021/04/06 12:19:03;;;;;;;2.10;0.80;;;23.30;38.40;;;;;;5082300;28;20055;-68
2021/04/06 12:21:29;;;;;;;1.98;0.80;;;23.30;38.40;;;;;;5081615;28;20119;-68
2021/04/06 12:23:54;;;;;;;0.75;0.50;;;23.40;38.40;;;;;;5082960;28;20111;-67
2021/04/06 12:26:20;;;;;;;0.95;0.60;;;23.40;38.40;;;;;;5058123;28;20036;-65
2021/04/06 12:28:46;;;;;;;1.30;0.80;;;23.40;38.40;;;;;;5078614;28;20034;-65
2021/04/06 12:31:12;;;;;;;2.38;0.80;;;23.40;38.40;;;;;;5064232;28;20147;-66
2021/04/06 12:33:37;;;;;;;1.58;0.80;;;23.40;38.40;;;;;;5074453;28;20046;-66
2021/04/06 12:36:03;;;;;;;1.50;0.70;;;23.40;38.40;;;;;;5078606;28;20031;-66
2021/04/06 12:38:30;;;;;;;1.50;0.70;;;23.40;38.40;;;;;;5065837;28;20029;-68
2021/04/06 12:40:56;;;;;;;1.35;0.70;;;23.40;38.50;;;;;;5081760;28;20131;-66
2021/04/06 12:43:22;;;;;;;1.40;0.70;;;23.40;38.40;;;;;;5079840;28;20046;-67
2021/04/06 12:45:47;;;;;;;2.90;0.95;;;23.40;38.40;;;;;;5063911;28;20727;-65
2021/04/06 12:48:13;;;;;;;1.33;0.65;;;23.40;38.40;;;;;;5080266;28;20032;-65
2021/04/06 12:50:39;;;;;;;1.90;0.80;;;23.40;38.40;;;;;;5078327;28;20031;-65
2021/04/06 12:53:04;;;;;;;1.88;0.63;;;23.40;38.40;;;;;;5067843;28;20035;-66
2021/04/06 12:55:30;;;;;;;1.02;0.68;;;23.40;38.50;;;;;;5063159;28;20033;-66
2021/04/06 12:57:56;;;;;;;1.45;0.70;;;23.40;38.50;;;;;;5078672;28;20028;-66
2021/04/06 13:00:23;;;;;;;3.45;0.68;;;23.40;38.60;;;;;;5077102;28;20488;-66
2021/04/06 13:02:50;;;;;;;1.92;0.60;;;23.40;38.60;;;;;;5075558;28;20016;-64